createdAt,value
2023-06-27T00:00:12.825Z,100101.47
2023-06-27T00:02:39.417Z,100097.84
2023-06-27T00:05:06.229Z,100102.97
2023-06-27T00:07:32.737Z,100093.13
2023-06-27T00:09:59.215Z,100092.13
2023-06-27T00:12:25.769Z,100090.97
2023-06-27T00:14:52.187Z,100088.34
2023-06-27T00:17:18.593Z,100086.28
2023-06-27T00:19:47.799Z,100085.34
2023-06-27T00:22:15.240Z,100079.03
2023-06-27T00:24:41.681Z,100079.56
2023-06-27T00:27:08.450Z,100087.00
2023-06-27T00:29:34.824Z,100082.31
2023-06-27T00:32:01.177Z,100071.00
2023-06-27T00:34:27.750Z,100069.16
2023-06-27T00:36:54.541Z,100076.28
2023-06-27T00:39:21.926Z,100079.50
2023-06-27T00:41:48.491Z,100077.09
2023-06-27T00:44:15.165Z,100074.72
2023-06-27T00:46:41.733Z,100078.13
2023-06-27T00:49:08.817Z,100076.00
2023-06-27T00:51:35.203Z,100073.63
2023-06-27T00:54:01.595Z,100072.03
2023-06-27T00:56:28.359Z,100063.72
2023-06-27T00:58:55.024Z,100072.59
2023-06-27T01:01:21.399Z,100065.50
2023-06-27T01:03:48.442Z,100065.97
2023-06-27T01:06:33.444Z,100057.50
2023-06-27T01:09:05.120Z,100047.53
2023-06-27T01:11:36.458Z,100049.44
2023-06-27T01:14:03.909Z,100042.28
2023-06-27T01:16:30.708Z,100047.56
2023-06-27T01:18:57.756Z,100043.34
2023-06-27T01:21:25.418Z,100039.91
2023-06-27T01:23:55.452Z,100027.09
2023-06-27T01:26:22.219Z,100031.31
2023-06-27T01:28:48.695Z,100034.66
2023-06-27T01:31:17.582Z,100031.66
2023-06-27T01:33:52.609Z,100022.66
2023-06-27T01:36:27.974Z,100017.78
2023-06-27T01:38:54.319Z,100019.41
2023-06-27T01:41:21.676Z,100023.09
2023-06-27T01:43:48.095Z,100022.25
2023-06-27T01:46:14.599Z,100018.72
2023-06-27T01:48:42.020Z,100012.44
2023-06-27T01:51:09.079Z,100004.91
2023-06-27T01:53:35.754Z,99997.25
2023-06-27T01:56:02.112Z,99988.97
2023-06-27T01:58:28.520Z,99990.78
2023-06-27T02:00:54.977Z,99987.84
2023-06-27T02:03:21.458Z,99991.00
2023-06-27T02:05:47.949Z,99991.63
2023-06-27T02:08:14.311Z,99983.66
2023-06-27T02:10:40.664Z,99980.38
2023-06-27T02:13:07.555Z,99977.44
2023-06-27T02:15:33.915Z,99983.84
2023-06-27T02:18:00.741Z,99990.47
2023-06-27T02:20:27.383Z,99990.50
2023-06-27T02:22:53.781Z,99990.28
2023-06-27T02:25:20.124Z,99982.31
2023-06-27T02:27:46.507Z,99982.31
2023-06-27T02:30:13.135Z,99987.63
2023-06-27T02:32:39.568Z,99993.06
2023-06-27T02:35:06.210Z,99992.41
2023-06-27T02:37:32.560Z,99993.25
2023-06-27T02:39:58.922Z,99992.28
2023-06-27T02:42:25.339Z,99988.78
2023-06-27T02:44:51.706Z,99981.28
2023-06-27T02:47:19.451Z,99978.09
2023-06-27T02:49:45.920Z,99982.81
2023-06-27T02:52:12.271Z,99967.38
2023-06-27T02:54:38.619Z,99966.47
2023-06-27T02:57:05.176Z,99966.44
2023-06-27T02:59:31.565Z,99963.94
2023-06-27T03:01:58.018Z,99964.88
2023-06-27T03:04:25.225Z,99964.56
2023-06-27T03:06:51.769Z,99967.16
2023-06-27T03:09:19.292Z,99970.94
2023-06-27T03:11:46.092Z,99973.69
2023-06-27T03:14:12.534Z,99968.28
2023-06-27T03:16:38.950Z,99960.81
2023-06-27T03:19:05.409Z,99950.19
2023-06-27T03:21:31.770Z,99952.25
2023-06-27T03:23:58.116Z,99951.28
2023-06-27T03:26:29.018Z,99957.84
2023-06-27T03:28:55.817Z,99964.03
2023-06-27T03:31:22.302Z,99969.81
2023-06-27T03:33:48.735Z,99965.94
2023-06-27T03:36:15.102Z,99963.19
2023-06-27T03:38:41.515Z,99960.75
2023-06-27T03:41:07.951Z,99963.53
2023-06-27T03:43:34.366Z,99965.94
2023-06-27T03:46:00.763Z,99969.44
2023-06-27T03:48:27.196Z,99968.78
2023-06-27T03:50:53.612Z,99975.59
2023-06-27T03:53:20.006Z,99975.88
2023-06-27T03:55:46.396Z,99974.59
2023-06-27T03:58:12.776Z,99980.28
2023-06-27T04:00:39.207Z,99981.97
2023-06-27T04:03:05.681Z,99969.06
2023-06-27T04:05:32.100Z,99987.06
2023-06-27T04:07:58.495Z,99999.50
2023-06-27T04:10:24.920Z,100007.56
2023-06-27T04:12:51.295Z,100005.34
2023-06-27T04:15:17.657Z,100014.69
2023-06-27T04:17:44.973Z,100027.97
2023-06-27T04:20:12.883Z,100031.97
2023-06-27T04:22:39.517Z,100041.63
2023-06-27T04:25:09.218Z,100045.25
2023-06-27T04:27:35.703Z,100045.88
2023-06-27T04:30:02.074Z,100042.00
2023-06-27T04:32:28.537Z,100053.22
2023-06-27T04:34:58.617Z,100047.34
2023-06-27T04:37:25.079Z,100051.19
2023-06-27T04:39:54.244Z,100047.00
2023-06-27T04:42:20.683Z,100025.16
2023-06-27T04:44:47.077Z,100022.59
2023-06-27T04:47:13.452Z,100011.66
2023-06-27T04:49:39.860Z,100016.38
2023-06-27T04:52:06.880Z,100006.03
2023-06-27T04:54:33.379Z,99994.16
2023-06-27T04:57:11.982Z,99986.94
2023-06-27T04:59:40.115Z,99990.84
2023-06-27T05:02:06.531Z,99993.13
2023-06-27T05:04:33.027Z,99989.03
2023-06-27T05:06:59.496Z,99985.53
2023-06-27T05:09:25.874Z,99976.13
2023-06-27T05:11:52.272Z,99968.47
2023-06-27T05:14:19.793Z,99965.03
2023-06-27T05:16:46.209Z,99975.88
2023-06-27T05:19:12.590Z,99980.50
2023-06-27T05:21:39.035Z,99980.97
2023-06-27T05:24:08.204Z,99971.75
2023-06-27T05:26:35.085Z,99969.94
2023-06-27T05:29:01.903Z,99974.06
2023-06-27T05:31:28.815Z,99972.47
2023-06-27T05:33:55.591Z,99970.94
2023-06-27T05:36:22.034Z,99980.69
2023-06-27T05:38:49.065Z,99975.13
2023-06-27T05:41:19.104Z,99979.94
2023-06-27T05:43:46.559Z,99981.53
2023-06-27T05:46:13.021Z,99988.84
2023-06-27T05:48:39.427Z,99990.44
2023-06-27T05:51:05.867Z,99986.72
2023-06-27T05:53:32.245Z,99992.75
2023-06-27T05:55:58.617Z,99985.13
2023-06-27T05:58:25.134Z,99979.38
2023-06-27T06:00:51.710Z,99981.81
2023-06-27T06:03:18.180Z,99981.91
2023-06-27T06:05:44.619Z,99977.28
2023-06-27T06:08:10.973Z,99974.44
2023-06-27T06:10:37.336Z,99977.22
2023-06-27T06:13:03.754Z,99971.28
2023-06-27T06:15:30.166Z,99982.50
2023-06-27T06:17:56.648Z,99990.09
2023-06-27T06:20:23.102Z,99993.00
2023-06-27T06:22:49.492Z,99987.22
2023-06-27T06:25:15.881Z,99984.69
2023-06-27T06:27:42.370Z,99979.41
2023-06-27T06:30:09.620Z,99988.47
2023-06-27T06:32:36.305Z,99987.72
2023-06-27T06:35:02.797Z,99980.34
2023-06-27T06:37:29.307Z,99983.47
2023-06-27T06:39:55.657Z,99982.25
2023-06-27T06:42:22.170Z,99979.59
2023-06-27T06:44:49.616Z,99980.94
2023-06-27T06:47:16.006Z,99982.44
2023-06-27T06:49:42.391Z,99984.97
2023-06-27T06:52:08.754Z,99998.41
2023-06-27T06:54:35.149Z,99999.47
2023-06-27T06:57:01.606Z,99997.03
2023-06-27T06:59:27.992Z,99996.94
2023-06-27T07:01:54.344Z,99998.28
2023-06-27T07:04:20.814Z,100005.88
2023-06-27T07:06:49.524Z,100006.53
2023-06-27T07:09:15.982Z,100006.03
2023-06-27T07:11:42.392Z,100006.84
2023-06-27T07:14:08.759Z,100003.44
2023-06-27T07:16:35.120Z,100006.34
2023-06-27T07:19:02.383Z,99999.53
2023-06-27T07:21:28.756Z,100011.31
2023-06-27T07:23:55.166Z,100012.19
2023-06-27T07:26:21.605Z,100016.09
2023-06-27T07:28:48.020Z,99998.69
2023-06-27T07:31:14.414Z,99997.06
2023-06-27T07:33:40.832Z,99994.47
2023-06-27T07:36:07.220Z,100004.44
2023-06-27T07:38:33.592Z,99995.94
2023-06-27T07:41:00.120Z,99994.47
2023-06-27T07:43:26.500Z,99991.41
2023-06-27T07:45:52.883Z,100011.09
2023-06-27T07:48:19.373Z,100003.09
2023-06-27T07:50:45.773Z,100000.19
2023-06-27T07:53:12.143Z,100005.25
2023-06-27T07:55:38.588Z,100012.63
2023-06-27T07:58:05.067Z,100010.66
2023-06-27T08:00:32.090Z,100005.94
2023-06-27T08:02:58.637Z,99997.66
2023-06-27T08:05:25.067Z,99995.19
2023-06-27T08:07:51.471Z,99993.81
2023-06-27T08:10:17.902Z,99986.66
2023-06-27T08:12:44.268Z,99988.97
2023-06-27T08:15:10.772Z,99993.13
2023-06-27T08:17:37.271Z,99993.19
2023-06-27T08:20:04.768Z,99979.94
2023-06-27T08:22:31.155Z,99983.13
2023-06-27T08:24:57.580Z,99981.97
2023-06-27T08:27:24.174Z,99991.56
2023-06-27T08:29:50.535Z,99991.59
2023-06-27T08:32:16.977Z,99992.66
2023-06-27T08:34:43.455Z,99996.38
2023-06-27T08:37:11.083Z,99989.94
2023-06-27T08:39:38.022Z,99996.66
2023-06-27T08:42:04.468Z,100003.63
2023-06-27T08:44:30.854Z,100002.81
2023-06-27T08:46:57.983Z,99997.06
2023-06-27T08:49:25.447Z,100013.66
2023-06-27T08:51:51.990Z,100011.34
2023-06-27T08:54:23.649Z,100007.47
2023-06-27T08:56:50.103Z,99994.09
2023-06-27T08:59:17.907Z,100024.03
2023-06-27T09:01:44.426Z,100014.88
2023-06-27T09:04:11.272Z,100009.72
2023-06-27T09:06:38.934Z,100012.53
2023-06-27T09:09:06.239Z,100006.22
2023-06-27T09:11:32.635Z,100015.56
2023-06-27T09:13:58.996Z,100022.88
2023-06-27T09:16:25.489Z,100031.50
2023-06-27T09:18:53.403Z,100031.50
2023-06-27T09:21:22.042Z,100023.56
2023-06-27T09:23:50.474Z,100040.44
2023-06-27T09:26:16.924Z,100035.63
2023-06-27T09:28:50.447Z,100042.06
2023-06-27T09:31:20.417Z,100044.06
2023-06-27T09:33:48.595Z,100037.72
2023-06-27T09:39:07.984Z,100034.81
2023-06-27T09:41:42.344Z,100055.13
2023-06-27T09:44:12.595Z,100062.72
2023-06-27T09:46:39.009Z,100063.81
2023-06-27T09:49:08.864Z,100062.09
2023-06-27T09:51:35.257Z,100054.63
2023-06-27T09:54:02.068Z,100055.75
2023-06-27T09:56:32.160Z,100067.16
2023-06-27T10:01:55.301Z,100059.38
2023-06-27T10:04:38.566Z,100065.84
2023-06-27T10:07:08.298Z,100076.47
2023-06-27T10:09:35.577Z,100069.50
2023-06-27T10:12:01.993Z,100069.28
2023-06-27T10:14:28.418Z,100082.22
2023-06-27T10:16:55.414Z,100065.03
2023-06-27T10:19:21.777Z,100081.22
2023-06-27T10:21:49.507Z,100088.56
2023-06-27T10:24:15.892Z,100078.84
2023-06-27T10:26:49.518Z,100080.41
2023-06-27T10:29:16.036Z,100081.38
2023-06-27T10:31:46.014Z,100094.94
2023-06-27T10:34:22.208Z,100097.31
2023-06-27T10:37:04.645Z,100106.72
2023-06-27T10:39:32.170Z,100107.75
2023-06-27T10:42:16.236Z,100107.19
2023-06-27T10:44:54.787Z,100122.56
2023-06-27T10:47:21.096Z,100120.22
2023-06-27T10:49:48.305Z,100116.72
2023-06-27T10:52:24.561Z,100123.97
2023-06-27T10:55:14.276Z,100125.78
2023-06-27T10:57:43.719Z,100127.91
2023-06-27T11:00:13.022Z,100145.53
2023-06-27T11:02:41.920Z,100139.47
2023-06-27T11:05:17.689Z,100145.41
2023-06-27T11:07:53.983Z,100139.56
2023-06-27T11:10:23.932Z,100152.72
2023-06-27T11:12:51.776Z,100155.16
2023-06-27T11:15:18.652Z,100160.50
2023-06-27T11:17:46.014Z,100164.16
2023-06-27T11:20:15.429Z,100171.09
2023-06-27T11:22:41.821Z,100162.13
2023-06-27T11:25:12.596Z,100162.16
2023-06-27T11:27:38.965Z,100166.84
2023-06-27T11:30:05.668Z,100162.16
2023-06-27T11:32:33.162Z,100165.41
2023-06-27T11:34:59.764Z,100172.19
2023-06-27T11:37:26.846Z,100166.88
2023-06-27T11:39:54.880Z,100167.13
2023-06-27T11:42:37.005Z,100163.84
2023-06-27T11:45:04.322Z,100166.13
2023-06-27T11:47:30.753Z,100172.66
2023-06-27T11:50:24.743Z,100175.75
2023-06-27T11:52:51.438Z,100175.22
2023-06-27T11:55:17.964Z,100172.91
2023-06-27T11:57:53.557Z,100177.38
2023-06-27T12:00:27.494Z,100177.69
2023-06-27T12:02:55.046Z,100176.53
2023-06-27T12:05:22.064Z,100181.78
2023-06-27T12:07:56.021Z,100184.38
2023-06-27T12:10:22.398Z,100187.25
2023-06-27T12:12:49.993Z,100180.00
2023-06-27T12:15:16.601Z,100186.19
2023-06-27T12:17:56.270Z,100186.25
2023-06-27T12:20:23.233Z,100185.06
2023-06-27T12:22:49.641Z,100188.13
2023-06-27T12:25:16.060Z,100189.59
2023-06-27T12:27:42.564Z,100189.41
2023-06-27T12:30:10.975Z,100199.84
2023-06-27T12:32:37.576Z,100196.97
2023-06-27T12:35:04.086Z,100200.22
2023-06-27T12:37:34.487Z,100196.38
2023-06-27T12:40:02.423Z,100201.72
2023-06-27T12:42:28.832Z,100200.34
2023-06-27T12:44:56.209Z,100203.75
2023-06-27T12:47:22.650Z,100199.19
2023-06-27T12:49:49.062Z,100191.91
2023-06-27T12:52:15.462Z,100204.38
2023-06-27T12:54:41.895Z,100197.94
2023-06-27T12:57:08.397Z,100186.47
2023-06-27T12:59:35.307Z,100198.50
2023-06-27T13:02:01.789Z,100189.72
2023-06-27T13:04:31.553Z,100187.84
2023-06-27T13:07:01.114Z,100192.56
2023-06-27T13:09:27.689Z,100186.31
2023-06-27T13:11:54.762Z,100191.91
2023-06-27T13:14:21.611Z,100188.28
2023-06-27T13:16:48.013Z,100198.56
2023-06-27T13:19:14.540Z,100195.88
2023-06-27T13:21:40.944Z,100203.34
2023-06-27T13:24:07.789Z,100209.19
2023-06-27T13:26:35.243Z,100206.75
2023-06-27T13:29:01.627Z,100213.53
2023-06-27T13:31:28.597Z,100210.78
2023-06-27T13:33:55.138Z,100209.94
2023-06-27T13:36:21.508Z,100216.50
2023-06-27T13:38:47.919Z,100206.50
2023-06-27T13:41:14.449Z,100205.25
2023-06-27T13:43:41.166Z,100206.84
2023-06-27T13:46:07.745Z,100208.97
2023-06-27T13:48:34.284Z,100204.63
2023-06-27T13:51:00.788Z,100192.50
2023-06-27T13:53:27.178Z,100201.03
2023-06-27T13:55:53.669Z,100202.06
2023-06-27T13:58:20.139Z,100202.91
2023-06-27T14:00:49.885Z,100204.91
2023-06-27T14:03:16.461Z,100194.69
2023-06-27T14:05:43.048Z,100194.06
2023-06-27T14:08:09.541Z,100186.41
2023-06-27T14:10:38.030Z,100182.63
2023-06-27T14:13:05.190Z,100177.09
2023-06-27T14:15:31.901Z,100178.94
2023-06-27T14:17:58.374Z,100172.91
2023-06-27T14:20:24.862Z,100166.47
2023-06-27T14:22:51.561Z,100169.53
2023-06-27T14:25:17.958Z,100172.59
2023-06-27T14:27:44.355Z,100172.34
2023-06-27T14:30:10.871Z,100170.25
2023-06-27T14:32:37.334Z,100169.69
2023-06-27T14:35:03.874Z,100176.97
2023-06-27T14:37:30.266Z,100171.47
2023-06-27T14:39:56.713Z,100168.44
2023-06-27T14:42:23.130Z,100173.47
2023-06-27T14:44:49.605Z,100172.13
2023-06-27T14:47:16.117Z,100172.53
2023-06-27T14:49:42.557Z,100161.00
2023-06-27T14:52:09.005Z,100170.06
2023-06-27T14:54:35.475Z,100166.25
2023-06-27T14:57:02.378Z,100159.22
2023-06-27T14:59:30.055Z,100155.34
2023-06-27T15:01:56.432Z,100153.47
2023-06-27T15:04:24.165Z,100147.41
2023-06-27T15:06:50.624Z,100150.81
2023-06-27T15:09:17.348Z,100147.94
2023-06-27T15:11:43.701Z,100144.88
2023-06-27T15:14:10.073Z,100147.25
2023-06-27T15:16:36.502Z,100140.84
2023-06-27T15:19:02.880Z,100150.41
2023-06-27T15:21:29.288Z,100146.16
2023-06-27T15:23:55.751Z,100150.19
2023-06-27T15:26:22.141Z,100152.59
2023-06-27T15:28:49.463Z,100162.34
2023-06-27T15:31:16.110Z,100156.28
2023-06-27T15:33:42.584Z,100158.09
2023-06-27T15:36:08.968Z,100161.78
2023-06-27T15:38:35.503Z,100160.16
2023-06-27T15:41:01.969Z,100166.06
2023-06-27T15:43:28.361Z,100163.81
2023-06-27T15:45:54.836Z,100162.25
2023-06-27T15:48:21.283Z,100163.19
2023-06-27T15:50:47.668Z,100163.94
2023-06-27T15:53:14.103Z,100153.41
2023-06-27T15:55:40.752Z,100156.81
2023-06-27T15:58:07.189Z,100157.47
2023-06-27T16:00:33.567Z,100161.69
2023-06-27T16:03:00.129Z,100155.28
2023-06-27T16:05:26.602Z,100161.66
2023-06-27T16:07:52.978Z,100162.91
2023-06-27T16:10:19.373Z,100153.22
2023-06-27T16:12:45.808Z,100161.03
2023-06-27T16:15:12.199Z,100161.66
2023-06-27T16:17:38.639Z,100159.13
2023-06-27T16:20:05.934Z,100164.91
2023-06-27T16:22:32.432Z,100158.91
2023-06-27T16:25:00.435Z,100154.91
2023-06-27T16:27:26.796Z,100163.75
2023-06-27T16:29:53.193Z,100160.44
2023-06-27T16:32:19.564Z,100162.00
2023-06-27T16:34:47.232Z,100153.91
2023-06-27T16:37:13.651Z,100153.22
2023-06-27T16:39:40.205Z,100158.81
2023-06-27T16:42:07.906Z,100161.94
2023-06-27T16:44:34.359Z,100163.75
2023-06-27T16:47:00.714Z,100160.88
2023-06-27T16:49:28.008Z,100161.94
2023-06-27T16:51:54.530Z,100160.22
2023-06-27T16:54:23.842Z,100155.19
2023-06-27T16:56:50.398Z,100153.06
2023-06-27T16:59:17.611Z,100150.50
2023-06-27T17:01:46.926Z,100153.59
2023-06-27T17:04:15.330Z,100149.50
2023-06-27T17:06:41.784Z,100143.25
2023-06-27T17:09:08.524Z,100142.38
2023-06-27T17:11:35.004Z,100150.47
2023-06-27T17:14:01.445Z,100150.00
2023-06-27T17:16:27.813Z,100147.97
2023-06-27T17:18:54.190Z,100149.22
2023-06-27T17:21:20.680Z,100152.34
2023-06-27T17:23:47.629Z,100148.47
2023-06-27T17:26:13.999Z,100146.94
2023-06-27T17:28:40.467Z,100144.47
2023-06-27T17:31:06.956Z,100148.56
2023-06-27T17:33:33.434Z,100144.63
2023-06-27T17:35:59.858Z,100144.84
2023-06-27T17:38:26.274Z,100146.06
2023-06-27T17:40:52.652Z,100148.34
2023-06-27T17:43:19.907Z,100147.31
2023-06-27T17:45:46.306Z,100148.53
2023-06-27T17:48:12.704Z,100149.94
2023-06-27T17:50:40.226Z,100151.28
2023-06-27T17:53:07.060Z,100148.63
2023-06-27T17:55:33.552Z,100148.88
2023-06-27T17:58:00.028Z,100143.44
2023-06-27T18:00:26.403Z,100146.97
2023-06-27T18:02:53.005Z,100145.19
2023-06-27T18:05:19.554Z,100143.56
2023-06-27T18:07:45.978Z,100144.69
2023-06-27T18:10:13.482Z,100136.06
2023-06-27T18:12:40.011Z,100144.31
2023-06-27T18:15:06.712Z,100133.94
2023-06-27T18:17:33.113Z,100140.13
2023-06-27T18:19:59.580Z,100138.09
2023-06-27T18:22:26.661Z,100136.41
2023-06-27T18:24:53.410Z,100132.78
2023-06-27T18:27:24.473Z,100139.09
2023-06-27T18:29:50.943Z,100136.50
2023-06-27T18:32:17.320Z,100139.56
2023-06-27T18:34:44.315Z,100139.25
2023-06-27T18:37:10.685Z,100133.41
2023-06-27T18:39:37.379Z,100131.38
2023-06-27T18:42:04.029Z,100131.44
2023-06-27T18:44:31.509Z,100135.22
2023-06-27T18:46:57.965Z,100133.97
2023-06-27T18:49:24.382Z,100134.81
2023-06-27T18:51:50.787Z,100126.16
2023-06-27T18:54:17.190Z,100126.19
2023-06-27T18:56:43.673Z,100128.44
2023-06-27T18:59:10.140Z,100135.50
2023-06-27T19:01:36.605Z,100135.38
2023-06-27T19:04:03.201Z,100138.56
2023-06-27T19:06:30.292Z,100125.88
2023-06-27T19:08:56.788Z,100133.34
2023-06-27T19:11:23.200Z,100140.09
2023-06-27T19:13:50.819Z,100142.19
2023-06-27T19:16:17.376Z,100140.28
2023-06-27T19:18:44.272Z,100140.81
2023-06-27T19:21:14.251Z,100143.59
2023-06-27T19:23:40.610Z,100147.44
2023-06-27T19:26:08.651Z,100139.97
2023-06-27T19:28:36.780Z,100141.16
2023-06-27T19:31:03.470Z,100136.63
2023-06-27T19:33:30.244Z,100138.22
2023-06-27T19:35:56.651Z,100137.19
2023-06-27T19:38:23.123Z,100134.13
2023-06-27T19:40:49.601Z,100129.78
2023-06-27T19:43:16.308Z,100137.09
2023-06-27T19:45:42.717Z,100140.59
2023-06-27T19:48:10.018Z,100128.38
2023-06-27T19:50:36.503Z,100141.03
2023-06-27T19:53:02.946Z,100148.25
2023-06-27T19:55:29.392Z,100144.31
2023-06-27T19:57:59.000Z,100142.84
2023-06-27T20:00:25.733Z,100149.00
2023-06-27T20:02:52.319Z,100140.00
2023-06-27T20:05:18.798Z,100144.22
2023-06-27T20:07:45.332Z,100145.31
2023-06-27T20:10:14.923Z,100147.00
2023-06-27T20:12:41.720Z,100146.88
2023-06-27T20:15:08.385Z,100150.28
2023-06-27T20:17:34.863Z,100147.84
2023-06-27T20:20:03.162Z,100150.06
2023-06-27T20:22:29.557Z,100139.69
2023-06-27T20:24:56.292Z,100144.78
2023-06-27T20:27:22.688Z,100143.91
2023-06-27T20:29:49.082Z,100140.97
2023-06-27T20:32:15.503Z,100137.16
2023-06-27T20:34:42.285Z,100138.94
2023-06-27T20:37:08.717Z,100136.28
2023-06-27T20:39:35.200Z,100136.06
2023-06-27T20:42:01.663Z,100128.22
2023-06-27T20:44:28.078Z,100135.31
2023-06-27T20:46:54.477Z,100132.13
2023-06-27T20:49:21.054Z,100128.63
2023-06-27T20:51:47.462Z,100125.31
2023-06-27T20:54:13.901Z,100127.13
2023-06-27T20:56:40.349Z,100131.28
2023-06-27T20:59:06.853Z,100120.16
2023-06-27T21:01:34.176Z,100119.94
2023-06-27T21:04:04.561Z,100111.44
2023-06-27T21:06:31.090Z,100111.34
2023-06-27T21:08:57.518Z,100105.38
2023-06-27T21:11:23.891Z,100102.84
2023-06-27T21:13:50.713Z,100096.72
2023-06-27T21:16:19.273Z,100101.44
2023-06-27T21:18:46.877Z,100091.72
2023-06-27T21:21:13.268Z,100091.00
2023-06-27T21:23:39.686Z,100089.38
2023-06-27T21:26:06.103Z,100086.75
2023-06-27T21:28:32.495Z,100082.72
2023-06-27T21:30:58.967Z,100087.78
2023-06-27T21:33:25.512Z,100080.47
2023-06-27T21:35:51.890Z,100078.78
2023-06-27T21:38:18.295Z,100086.13
2023-06-27T21:40:44.793Z,100084.19
2023-06-27T21:43:11.238Z,100084.63
2023-06-27T21:45:37.906Z,100080.50
2023-06-27T21:48:04.437Z,100083.75
2023-06-27T21:50:31.081Z,100090.00
2023-06-27T21:52:57.553Z,100092.78
2023-06-27T21:55:23.935Z,100092.88
2023-06-27T21:57:50.301Z,100092.88
2023-06-27T22:00:16.888Z,100085.47
2023-06-27T22:02:48.996Z,100081.34
2023-06-27T22:05:18.612Z,100085.78
2023-06-27T22:07:45.433Z,100084.28
2023-06-27T22:10:12.018Z,100081.44
2023-06-27T22:12:38.492Z,100078.69
2023-06-27T22:15:05.263Z,100084.72
2023-06-27T22:17:33.324Z,100076.56
2023-06-27T22:20:00.161Z,100082.72
2023-06-27T22:22:26.587Z,100079.84
2023-06-27T22:24:54.656Z,100069.13
2023-06-27T22:27:22.745Z,100073.16
2023-06-27T22:29:49.186Z,100086.72
2023-06-27T22:32:15.610Z,100078.53
2023-06-27T22:34:42.042Z,100078.34
2023-06-27T22:37:08.450Z,100072.09
2023-06-27T22:39:34.918Z,100066.91
2023-06-27T22:42:01.359Z,100062.13
2023-06-27T22:44:27.710Z,100070.91
2023-06-27T22:46:54.150Z,100056.72
2023-06-27T22:49:21.081Z,100064.13
2023-06-27T22:51:47.478Z,100059.78
2023-06-27T22:54:13.850Z,100061.47
2023-06-27T22:56:40.265Z,100051.94
2023-06-27T22:59:09.464Z,100058.84
2023-06-27T23:01:35.828Z,100058.31
2023-06-27T23:04:02.263Z,100058.16
2023-06-27T23:06:32.313Z,100050.13
2023-06-27T23:08:59.414Z,100053.97
2023-06-27T23:11:25.998Z,100046.44
2023-06-27T23:13:52.372Z,100048.31
2023-06-27T23:16:18.847Z,100050.66
2023-06-27T23:18:45.296Z,100041.56
2023-06-27T23:21:14.333Z,100042.19
2023-06-27T23:23:41.298Z,100039.84
2023-06-27T23:26:14.264Z,100034.75
2023-06-27T23:28:45.713Z,100032.53
2023-06-27T23:31:12.319Z,100035.41
2023-06-27T23:33:41.281Z,100033.78
2023-06-27T23:36:07.695Z,100036.53
2023-06-27T23:38:36.754Z,100030.53
2023-06-27T23:41:03.438Z,100029.56
2023-06-27T23:43:29.833Z,100021.91
2023-06-27T23:45:56.464Z,100017.03
2023-06-27T23:48:23.562Z,100013.84
2023-06-27T23:50:49.976Z,100009.84
2023-06-27T23:53:16.382Z,100007.53
2023-06-27T23:55:42.773Z,100020.44
2023-06-27T23:58:09.146Z,100006.66
